Armington, Illinois
Current Conditions -  °F | °C
As of 4:35 AM on Friday 19 Dec 2014 (Local Time) from KAAA Reporting Station
Clear Clear  
Wind Chill: 20°   Ceiling: Unl
Heat Index: 20°   Visibility: 7mi
Dew Point: 18°   Wind: 0mph
Humidity: 92%   Direction: NA
Pressure: 30.31"   Gusts: NA
Location:  40.34°N, 89.31°W
Report Text: KAAA 191035Z AUTO 00000KT 7SM CLR M07/M08 A3031 RMK AO2 T10661077
Loading
Personal Weather Stations






























Interactive Weather Map New forecast layout! Learn more

10-Day Weather Forecast

Advertisements
Track Severe Weather on mobile